createdAt,value
2018-09-21T00:01:49.835Z,16.10
2018-09-21T00:04:18.335Z,15.90
2018-09-21T00:06:46.715Z,15.82
2018-09-21T00:09:15.340Z,15.76
2018-09-21T00:11:43.727Z,15.68
2018-09-21T00:14:12.184Z,15.74
2018-09-21T00:16:40.647Z,15.94
2018-09-21T00:19:09.135Z,15.86
2018-09-21T00:21:37.587Z,15.95
2018-09-21T00:24:06.075Z,15.85
2018-09-21T00:26:34.514Z,15.72
2018-09-21T00:29:03.045Z,15.68
2018-09-21T00:31:31.526Z,15.66
2018-09-21T00:34:00.028Z,15.33
2018-09-21T00:36:28.536Z,15.43
2018-09-21T00:38:56.975Z,15.59
2018-09-21T00:41:25.491Z,15.57
2018-09-21T00:43:53.995Z,15.72
2018-09-21T00:46:22.435Z,15.66
2018-09-21T00:48:50.915Z,15.58
2018-09-21T00:51:19.391Z,15.46
2018-09-21T00:53:48.135Z,15.48
2018-09-21T00:56:16.784Z,15.35
2018-09-21T00:58:45.294Z,15.25
2018-09-21T01:01:13.786Z,15.10
2018-09-21T01:03:42.235Z,15.00
2018-09-21T01:06:10.759Z,15.09
2018-09-21T01:08:39.266Z,15.25
2018-09-21T01:11:07.725Z,15.15
2018-09-21T01:13:36.222Z,15.27
2018-09-21T01:16:04.780Z,15.31
2018-09-21T01:18:33.215Z,15.23
2018-09-21T01:21:01.695Z,15.34
2018-09-21T01:23:30.119Z,15.23
2018-09-21T01:25:58.606Z,15.33
2018-09-21T01:28:27.084Z,15.09
2018-09-21T01:30:55.545Z,15.35
2018-09-21T01:33:24.015Z,15.40
2018-09-21T01:35:52.487Z,15.25
2018-09-21T01:38:21.083Z,15.13
2018-09-21T01:40:49.511Z,15.04
2018-09-21T01:43:17.939Z,15.33
2018-09-21T01:45:46.490Z,14.94
2018-09-21T01:48:14.914Z,15.03
2018-09-21T01:50:43.572Z,15.08
2018-09-21T01:53:12.047Z,15.07
2018-09-21T01:55:40.478Z,14.59
2018-09-21T01:58:09.135Z,15.04
2018-09-21T02:00:37.551Z,15.08
2018-09-21T02:03:06.034Z,14.93
2018-09-21T02:05:34.449Z,15.21
2018-09-21T02:08:02.914Z,15.06
2018-09-21T02:10:31.371Z,14.98
2018-09-21T02:13:00.067Z,15.07
2018-09-21T02:15:28.622Z,14.97
2018-09-21T02:17:57.051Z,14.94
2018-09-21T02:20:25.538Z,15.12
2018-09-21T02:22:53.981Z,15.05
2018-09-21T02:25:22.449Z,15.06
2018-09-21T02:27:51.031Z,15.05
2018-09-21T02:30:19.500Z,15.03
2018-09-21T02:32:47.994Z,14.93
2018-09-21T02:35:16.503Z,14.69
2018-09-21T02:37:44.979Z,14.70
2018-09-21T02:40:13.451Z,14.69
2018-09-21T02:42:41.879Z,14.74
2018-09-21T02:45:10.427Z,14.78
2018-09-21T02:47:38.899Z,14.49
2018-09-21T02:50:07.375Z,13.98
2018-09-21T02:52:36.075Z,14.09
2018-09-21T02:55:04.707Z,14.38
2018-09-21T02:57:33.330Z,14.36
2018-09-21T03:00:01.896Z,14.37
2018-09-21T03:02:30.303Z,14.59
2018-09-21T03:04:58.907Z,14.62
2018-09-21T03:07:27.342Z,14.64
2018-09-21T03:09:56.091Z,14.88
2018-09-21T03:12:24.583Z,14.90
2018-09-21T03:14:53.058Z,14.97
2018-09-21T03:17:21.508Z,14.84
2018-09-21T03:19:50.007Z,14.71
2018-09-21T03:22:18.406Z,14.83
2018-09-21T03:24:46.903Z,14.77
2018-09-21T03:27:15.400Z,14.68
2018-09-21T03:29:43.963Z,14.84
2018-09-21T03:32:12.379Z,14.80
2018-09-21T03:34:40.885Z,14.84
2018-09-21T03:37:09.355Z,14.90
2018-09-21T03:39:37.875Z,14.86
2018-09-21T03:42:06.369Z,14.86
2018-09-21T03:44:34.859Z,14.93
2018-09-21T03:47:03.300Z,15.06
2018-09-21T03:49:31.832Z,15.01
2018-09-21T03:52:01.402Z,15.01
2018-09-21T03:54:29.899Z,15.04
2018-09-21T03:56:58.295Z,14.97
2018-09-21T03:59:26.799Z,15.15
2018-09-21T04:01:55.259Z,14.98
2018-09-21T04:04:23.695Z,15.06
2018-09-21T04:06:52.254Z,15.00
2018-09-21T04:09:20.726Z,14.93
2018-09-21T04:11:49.316Z,15.03
2018-09-21T04:14:17.791Z,14.87
2018-09-21T04:16:46.307Z,14.91
2018-09-21T04:19:14.791Z,14.86
2018-09-21T04:21:43.352Z,14.92
2018-09-21T04:24:11.759Z,14.88
2018-09-21T04:26:40.194Z,14.99
2018-09-21T04:29:08.684Z,14.84
2018-09-21T04:31:37.270Z,14.97
2018-09-21T04:34:05.747Z,14.85
2018-09-21T04:36:34.310Z,14.93
2018-09-21T04:39:02.845Z,15.06
2018-09-21T04:41:31.339Z,14.84
2018-09-21T04:43:59.814Z,14.82
2018-09-21T04:46:28.223Z,14.71
2018-09-21T04:48:56.637Z,14.88
2018-09-21T04:51:25.247Z,15.15
2018-09-21T04:53:53.739Z,15.19
2018-09-21T04:56:22.323Z,15.11
2018-09-21T04:58:50.806Z,15.08
2018-09-21T05:01:19.403Z,15.22
2018-09-21T05:03:47.943Z,15.13
2018-09-21T05:06:16.432Z,14.90
2018-09-21T05:08:44.934Z,14.70
2018-09-21T05:11:13.454Z,14.96
2018-09-21T05:13:41.975Z,14.96
2018-09-21T05:16:10.830Z,15.00
2018-09-21T05:18:39.255Z,15.18
2018-09-21T05:21:07.707Z,15.18
2018-09-21T05:23:36.094Z,15.28
2018-09-21T05:26:04.615Z,15.17
2018-09-21T05:28:33.068Z,15.07
2018-09-21T05:31:01.563Z,15.14
2018-09-21T05:33:29.962Z,15.05
2018-09-21T05:35:58.570Z,15.09
2018-09-21T05:38:27.107Z,15.19
2018-09-21T05:40:55.637Z,15.19
2018-09-21T05:43:24.147Z,15.08
2018-09-21T05:45:52.725Z,14.93
2018-09-21T05:48:21.124Z,15.07
2018-09-21T05:50:49.847Z,15.00
2018-09-21T05:53:18.408Z,15.07
2018-09-21T05:55:46.803Z,15.03
2018-09-21T05:58:15.423Z,15.15
2018-09-21T06:00:43.919Z,15.31
2018-09-21T06:03:12.347Z,15.53
2018-09-21T06:05:40.799Z,15.70
2018-09-21T06:08:09.305Z,15.74
2018-09-21T06:10:37.779Z,15.84
2018-09-21T06:13:06.271Z,16.04
2018-09-21T06:15:34.692Z,16.10
2018-09-21T06:18:03.111Z,16.17
2018-09-21T06:20:31.671Z,16.52
2018-09-21T06:23:00.104Z,16.45
2018-09-21T06:25:28.645Z,16.54
2018-09-21T06:27:57.179Z,16.55
2018-09-21T06:30:25.667Z,16.50
2018-09-21T06:32:54.259Z,16.80
2018-09-21T06:35:23.055Z,16.78
2018-09-21T06:37:51.534Z,16.67
2018-09-21T06:40:20.007Z,17.02
2018-09-21T06:42:48.871Z,16.66
2018-09-21T06:45:17.406Z,16.57
2018-09-21T06:47:45.859Z,16.70
2018-09-21T06:50:14.291Z,16.74
2018-09-21T06:52:42.747Z,16.62
2018-09-21T06:55:11.311Z,16.79
2018-09-21T06:57:39.812Z,16.75
2018-09-21T07:00:08.336Z,16.81
2018-09-21T07:02:36.830Z,17.34
2018-09-21T07:05:13.199Z,17.05
2018-09-21T07:07:42.075Z,17.10
2018-09-21T07:10:10.843Z,17.09
2018-09-21T07:12:39.473Z,17.13
2018-09-21T07:15:08.549Z,17.05
2018-09-21T07:17:37.096Z,17.13
2018-09-21T07:20:05.648Z,17.10
2018-09-21T07:22:34.647Z,17.20
2018-09-21T07:25:03.443Z,17.30
2018-09-21T07:27:32.183Z,17.24
2018-09-21T07:30:00.688Z,17.31
2018-09-21T07:32:29.267Z,17.41
2018-09-21T07:34:57.740Z,17.46
2018-09-21T07:37:26.445Z,17.86
2018-09-21T07:39:54.879Z,17.80
2018-09-21T07:42:23.343Z,17.89
2018-09-21T07:44:51.866Z,18.08
2018-09-21T07:47:20.554Z,18.26
2018-09-21T07:49:49.030Z,18.51
2018-09-21T07:52:17.679Z,18.76
2018-09-21T07:54:46.215Z,18.97
2018-09-21T07:57:14.706Z,19.20
2018-09-21T07:59:43.100Z,19.40
2018-09-21T08:02:11.537Z,19.43
2018-09-21T08:04:40.140Z,19.59
2018-09-21T08:07:08.942Z,19.74
2018-09-21T08:09:37.423Z,19.98
2018-09-21T08:12:05.955Z,20.22
2018-09-21T08:14:34.363Z,20.48
2018-09-21T08:17:02.923Z,20.75
2018-09-21T08:19:32.359Z,21.00
2018-09-21T08:22:00.715Z,21.12
2018-09-21T08:24:29.175Z,21.42
2018-09-21T08:26:57.772Z,21.49
2018-09-21T08:29:26.212Z,21.55
2018-09-21T08:31:54.872Z,21.72
2018-09-21T08:34:23.359Z,21.83
2018-09-21T08:36:51.818Z,21.77
2018-09-21T08:39:20.303Z,21.86
2018-09-21T08:41:48.891Z,22.07
2018-09-21T08:44:17.390Z,22.00
2018-09-21T08:46:45.859Z,22.08
2018-09-21T08:49:14.627Z,22.07
2018-09-21T08:51:43.031Z,22.30
2018-09-21T08:54:11.547Z,22.30
2018-09-21T08:56:40.046Z,22.27
2018-09-21T08:59:08.527Z,22.18
2018-09-21T09:01:37.027Z,22.27
2018-09-21T09:04:05.855Z,22.41
2018-09-21T09:06:34.333Z,22.45
2018-09-21T09:09:02.843Z,22.66
2018-09-21T09:11:31.433Z,22.62
2018-09-21T09:13:59.931Z,22.67
2018-09-21T09:16:28.327Z,22.54
2018-09-21T09:18:56.827Z,22.58
2018-09-21T09:21:25.427Z,22.61
2018-09-21T09:23:54.020Z,22.72
2018-09-21T09:26:22.448Z,22.92
2018-09-21T09:28:50.867Z,22.87
2018-09-21T09:31:19.390Z,22.93
2018-09-21T09:33:48.231Z,22.91
2018-09-21T09:36:16.659Z,22.98
2018-09-21T09:38:45.318Z,23.16
2018-09-21T09:41:13.883Z,23.22
2018-09-21T09:43:42.463Z,23.38
2018-09-21T09:46:10.931Z,23.51
2018-09-21T09:48:39.540Z,23.51
2018-09-21T09:51:08.019Z,23.47
2018-09-21T09:53:36.462Z,23.66
2018-09-21T09:56:04.937Z,23.84
2018-09-21T09:58:33.366Z,23.69
2018-09-21T10:01:01.827Z,23.82
2018-09-21T10:03:30.293Z,23.78
2018-09-21T10:05:58.732Z,23.89
2018-09-21T10:08:27.190Z,23.98
2018-09-21T10:10:55.674Z,23.92
2018-09-21T10:13:24.119Z,23.99
2018-09-21T10:15:52.576Z,23.99
2018-09-21T10:18:21.010Z,24.04
2018-09-21T10:20:49.533Z,24.01
2018-09-21T10:23:17.931Z,23.96
2018-09-21T10:25:46.434Z,24.01
2018-09-21T10:28:15.104Z,23.96
2018-09-21T10:30:43.462Z,24.08
2018-09-21T10:33:12.000Z,23.81
2018-09-21T10:35:40.586Z,23.73
2018-09-21T10:38:09.023Z,23.66
2018-09-21T10:40:37.767Z,23.76
2018-09-21T10:43:06.271Z,23.69
2018-09-21T10:45:34.693Z,23.72
2018-09-21T10:48:03.258Z,23.79
2018-09-21T10:50:31.838Z,23.69
2018-09-21T10:53:00.275Z,23.78
2018-09-21T10:55:28.835Z,23.73
2018-09-21T10:57:57.307Z,23.75
2018-09-21T11:00:25.696Z,23.74
2018-09-21T11:02:54.315Z,24.01
2018-09-21T11:05:22.759Z,23.98
2018-09-21T11:07:51.221Z,24.19
2018-09-21T11:10:19.651Z,24.00
2018-09-21T11:12:48.127Z,23.90
2018-09-21T11:15:16.551Z,24.04
2018-09-21T11:17:44.999Z,23.78
2018-09-21T11:20:13.415Z,23.66
2018-09-21T11:22:41.821Z,23.66
2018-09-21T11:25:10.239Z,23.66
2018-09-21T11:27:38.684Z,23.75
2018-09-21T11:30:07.187Z,23.76
2018-09-21T11:32:35.609Z,23.76
2018-09-21T11:35:04.115Z,23.87
2018-09-21T11:37:32.607Z,23.90
2018-09-21T11:40:01.011Z,23.77
2018-09-21T11:42:29.554Z,23.52
2018-09-21T11:44:58.044Z,23.50
2018-09-21T11:47:26.513Z,23.42
2018-09-21T11:49:55.003Z,23.48
2018-09-21T11:52:23.503Z,23.50
2018-09-21T11:54:51.986Z,23.32
2018-09-21T11:57:20.511Z,23.11
2018-09-21T11:59:48.939Z,23.09
2018-09-21T12:02:17.404Z,23.05
2018-09-21T12:04:46.012Z,22.83
2018-09-21T12:07:14.422Z,22.90
2018-09-21T12:09:43.042Z,22.92
2018-09-21T12:12:11.461Z,22.99
2018-09-21T12:14:39.882Z,22.60
2018-09-21T12:17:08.589Z,22.55
2018-09-21T12:19:36.923Z,22.40
2018-09-21T12:22:05.551Z,22.28
2018-09-21T12:24:34.257Z,22.27
2018-09-21T12:27:02.755Z,22.29
2018-09-21T12:29:31.175Z,22.37
2018-09-21T12:31:59.691Z,22.18
2018-09-21T12:34:28.315Z,22.27
2018-09-21T12:36:56.724Z,22.24
2018-09-21T12:39:25.387Z,22.14
2018-09-21T12:41:53.820Z,22.14
2018-09-21T12:44:22.288Z,22.22
2018-09-21T12:46:50.887Z,21.26
2018-09-21T12:49:19.316Z,19.89
2018-09-21T12:51:47.711Z,19.65
2018-09-21T12:54:16.230Z,18.77
2018-09-21T12:56:44.771Z,18.62
2018-09-21T12:59:13.186Z,18.10
2018-09-21T13:01:41.839Z,17.96
2018-09-21T13:04:10.443Z,17.99
2018-09-21T13:06:38.983Z,17.79
2018-09-21T13:09:08.850Z,17.55
2018-09-21T13:11:37.347Z,17.57
2018-09-21T13:14:05.858Z,17.62
2018-09-21T13:16:34.554Z,17.45
2018-09-21T13:19:03.010Z,17.30
2018-09-21T13:21:31.466Z,17.45
2018-09-21T13:24:00.111Z,16.88
2018-09-21T13:26:28.534Z,16.87
2018-09-21T13:28:57.046Z,16.77
2018-09-21T13:31:25.815Z,16.84
2018-09-21T13:33:54.308Z,16.61
2018-09-21T13:36:23.550Z,16.90
2018-09-21T13:38:52.203Z,16.81
2018-09-21T13:41:20.892Z,16.80
2018-09-21T13:43:49.335Z,16.89
2018-09-21T13:46:21.500Z,16.84
2018-09-21T13:48:49.907Z,17.01
2018-09-21T13:51:18.328Z,17.08
2018-09-21T13:53:47.063Z,17.38
2018-09-21T13:56:15.543Z,17.05
2018-09-21T13:58:44.115Z,17.10
2018-09-21T14:01:12.581Z,17.08
2018-09-21T14:03:41.059Z,16.93
2018-09-21T14:06:09.531Z,17.04
2018-09-21T14:08:38.263Z,17.08
2018-09-21T14:11:06.739Z,16.63
2018-09-21T14:13:35.282Z,16.65
2018-09-21T14:16:03.760Z,16.86
2018-09-21T14:18:32.259Z,17.10
2018-09-21T14:21:00.804Z,16.97
2018-09-21T14:23:29.336Z,17.35
2018-09-21T14:25:57.858Z,17.06
2018-09-21T14:28:26.415Z,17.17
2018-09-21T14:30:55.040Z,17.04
2018-09-21T14:33:23.511Z,16.93
2018-09-21T14:35:51.971Z,17.35
2018-09-21T14:38:20.461Z,17.26
2018-09-21T14:40:48.994Z,17.34
2018-09-21T14:43:17.505Z,17.09
2018-09-21T14:45:46.000Z,17.16
2018-09-21T14:48:14.440Z,17.20
2018-09-21T14:50:42.924Z,17.39
2018-09-21T14:53:11.466Z,17.92
2018-09-21T14:55:39.963Z,17.58
2018-09-21T14:58:08.487Z,17.57
2018-09-21T15:00:37.317Z,17.79
2018-09-21T15:03:05.852Z,17.95
2018-09-21T15:05:34.594Z,18.26
2018-09-21T15:08:03.884Z,18.44
2018-09-21T15:10:32.403Z,18.03
2018-09-21T15:13:00.802Z,18.15
2018-09-21T15:15:29.415Z,18.21
2018-09-21T15:17:57.951Z,18.38
2018-09-21T15:20:26.423Z,18.51
2018-09-21T15:22:55.096Z,18.62
2018-09-21T15:25:23.656Z,18.35
2018-09-21T15:27:52.139Z,18.55
2018-09-21T15:30:20.639Z,18.27
2018-09-21T15:32:49.073Z,18.22
2018-09-21T15:35:17.640Z,18.22
2018-09-21T15:37:46.262Z,18.43
2018-09-21T15:40:14.813Z,18.87
2018-09-21T15:42:43.361Z,18.39
2018-09-21T15:45:11.834Z,18.17
2018-09-21T15:47:40.412Z,18.21
2018-09-21T15:50:08.959Z,18.15
2018-09-21T15:52:37.646Z,18.24
2018-09-21T15:55:06.184Z,18.26
2018-09-21T15:57:34.711Z,18.67
2018-09-21T16:00:03.316Z,18.31
2018-09-21T16:02:31.777Z,18.27
2018-09-21T16:05:00.451Z,18.10
2018-09-21T16:07:28.923Z,18.60
2018-09-21T16:09:57.336Z,18.19
2018-09-21T16:12:25.875Z,18.05
2018-09-21T16:14:54.547Z,18.04
2018-09-21T16:17:23.006Z,18.31
2018-09-21T16:19:51.553Z,18.27
2018-09-21T16:22:20.097Z,18.25
2018-09-21T16:24:48.499Z,18.09
2018-09-21T16:27:16.990Z,17.68
2018-09-21T16:29:45.793Z,18.09
2018-09-21T16:32:14.308Z,18.13
2018-09-21T16:34:42.907Z,17.80
2018-09-21T16:37:11.764Z,18.14
2018-09-21T16:39:40.384Z,17.84
2018-09-21T16:42:08.883Z,17.99
2018-09-21T16:44:37.493Z,17.39
2018-09-21T16:47:06.615Z,17.39
2018-09-21T16:49:35.120Z,17.15
2018-09-21T16:52:03.624Z,17.14
2018-09-21T16:54:33.365Z,17.23
2018-09-21T16:57:01.899Z,17.12
2018-09-21T16:59:30.421Z,17.07
2018-09-21T17:01:58.987Z,17.06
2018-09-21T17:04:27.574Z,17.12
2018-09-21T17:06:56.169Z,17.10
2018-09-21T17:09:24.799Z,17.07
2018-09-21T17:11:53.271Z,16.87
2018-09-21T17:14:21.965Z,17.08
2018-09-21T17:16:50.461Z,16.97
2018-09-21T17:19:18.968Z,16.83
2018-09-21T17:21:47.629Z,16.95
2018-09-21T17:24:16.145Z,17.01
2018-09-21T17:26:44.796Z,17.25
2018-09-21T17:29:13.425Z,16.86
2018-09-21T17:31:41.887Z,16.71
2018-09-21T17:34:10.344Z,16.62
2018-09-21T17:36:39.031Z,16.66
2018-09-21T17:39:11.057Z,16.65
2018-09-21T17:41:39.537Z,16.59
2018-09-21T17:44:08.255Z,16.57
2018-09-21T17:46:36.795Z,16.91
2018-09-21T17:49:05.467Z,16.63
2018-09-21T17:51:34.031Z,16.69
2018-09-21T17:54:03.441Z,16.48
2018-09-21T17:56:32.079Z,16.43
2018-09-21T17:59:00.609Z,16.43
2018-09-21T18:01:29.143Z,16.39
2018-09-21T18:03:57.760Z,16.66
2018-09-21T18:06:26.299Z,16.38
2018-09-21T18:08:54.772Z,16.53
2018-09-21T18:11:23.271Z,16.33
2018-09-21T18:13:51.864Z,16.45
2018-09-21T18:16:20.368Z,16.39
2018-09-21T18:18:49.176Z,16.58
2018-09-21T18:21:17.792Z,16.39
2018-09-21T18:23:46.340Z,16.44
2018-09-21T18:26:14.996Z,16.70
2018-09-21T18:28:43.464Z,16.36
2018-09-21T18:31:12.239Z,16.38
2018-09-21T18:33:40.993Z,16.31
2018-09-21T18:36:09.685Z,16.24
2018-09-21T18:38:38.917Z,16.21
2018-09-21T18:41:07.521Z,16.39
2018-09-21T18:43:36.275Z,16.21
2018-09-21T18:46:04.868Z,16.41
2018-09-21T18:48:33.662Z,16.22
2018-09-21T18:51:02.228Z,16.29
2018-09-21T18:53:30.928Z,16.33
2018-09-21T18:56:00.167Z,16.50
2018-09-21T18:58:28.888Z,16.50
2018-09-21T19:00:57.769Z,16.79
2018-09-21T19:03:26.626Z,16.65
2018-09-21T19:05:55.623Z,16.39
2018-09-21T19:08:24.221Z,16.32
2018-09-21T19:10:53.679Z,16.26
2018-09-21T19:13:22.547Z,16.09
2018-09-21T19:15:51.815Z,16.13
2018-09-21T19:18:20.678Z,15.98
2018-09-21T19:20:49.942Z,16.23
2018-09-21T19:23:18.837Z,16.15
2018-09-21T19:25:47.828Z,15.90
2018-09-21T19:28:16.923Z,15.85
2018-09-21T19:30:46.162Z,15.93
2018-09-21T19:33:15.693Z,15.90
2018-09-21T19:35:44.422Z,15.72
2018-09-21T19:38:13.465Z,15.69
2018-09-21T19:40:43.416Z,15.78
2018-09-21T19:43:12.579Z,15.70
2018-09-21T19:45:41.578Z,15.58
2018-09-21T19:48:10.453Z,15.47
2018-09-21T19:50:39.102Z,15.20
2018-09-21T19:53:07.914Z,15.11
2018-09-21T19:55:38.343Z,14.88
2018-09-21T19:58:08.735Z,15.06
2018-09-21T20:00:39.067Z,15.10
2018-09-21T20:03:07.913Z,14.96
2018-09-21T20:05:36.926Z,15.05
2018-09-21T20:08:05.941Z,15.06
2018-09-21T20:10:35.442Z,15.15
2018-09-21T20:13:04.030Z,15.05
2018-09-21T20:15:32.615Z,15.14
2018-09-21T20:18:02.316Z,15.23
2018-09-21T20:20:31.310Z,15.21
2018-09-21T20:23:00.163Z,15.00
2018-09-21T20:25:28.674Z,15.23
2018-09-21T20:27:57.247Z,15.04
2018-09-21T20:30:31.187Z,15.24
2018-09-21T20:33:04.986Z,15.24
2018-09-21T20:35:33.817Z,15.22
2018-09-21T20:38:02.304Z,15.13
2018-09-21T20:40:30.954Z,15.03
2018-09-21T20:42:59.822Z,15.03
2018-09-21T20:45:28.331Z,14.98
2018-09-21T20:47:56.935Z,14.94
2018-09-21T20:50:25.579Z,14.87
2018-09-21T20:52:54.160Z,14.87
2018-09-21T20:55:23.697Z,15.40
2018-09-21T20:57:52.401Z,15.08
2018-09-21T21:00:20.918Z,14.99
2018-09-21T21:02:49.393Z,14.93
2018-09-21T21:05:18.233Z,15.23
2018-09-21T21:07:46.774Z,15.07
2018-09-21T21:10:15.211Z,15.18
2018-09-21T21:12:43.746Z,15.13
2018-09-21T21:15:12.171Z,15.02
2018-09-21T21:17:40.669Z,15.17
2018-09-21T21:20:09.242Z,15.03
2018-09-21T21:22:37.778Z,15.29
2018-09-21T21:25:06.264Z,15.03
2018-09-21T21:27:35.048Z,15.11
2018-09-21T21:30:03.572Z,14.96
2018-09-21T21:32:31.994Z,14.99
2018-09-21T21:35:00.880Z,15.04
2018-09-21T21:37:29.278Z,15.03
2018-09-21T21:39:57.734Z,14.82
2018-09-21T21:42:26.507Z,14.84
2018-09-21T21:44:55.047Z,14.93
2018-09-21T21:47:23.662Z,15.42
2018-09-21T21:49:52.243Z,14.93
2018-09-21T21:52:20.716Z,14.84
2018-09-21T21:54:49.207Z,14.80
2018-09-21T21:57:17.938Z,15.18
2018-09-21T21:59:46.347Z,14.87
2018-09-21T22:02:14.823Z,14.80
2018-09-21T22:04:43.479Z,14.64
2018-09-21T22:07:12.706Z,14.81
2018-09-21T22:09:41.371Z,14.66
2018-09-21T22:12:15.378Z,14.56
2018-09-21T22:14:43.865Z,14.52
2018-09-21T22:17:12.344Z,14.35
2018-09-21T22:19:40.834Z,14.29
2018-09-21T22:22:09.258Z,14.47
2018-09-21T22:24:37.651Z,14.28
2018-09-21T22:27:06.204Z,14.31
2018-09-21T22:29:34.668Z,14.14
2018-09-21T22:32:03.055Z,14.15
2018-09-21T22:34:31.620Z,14.18
2018-09-21T22:37:00.055Z,14.12
2018-09-21T22:39:28.450Z,14.06
2018-09-21T22:41:56.855Z,13.89
2018-09-21T22:44:25.293Z,13.98
2018-09-21T22:46:53.714Z,13.91
2018-09-21T22:49:23.887Z,13.87
2018-09-21T22:51:52.379Z,13.77
2018-09-21T22:54:20.814Z,13.82
2018-09-21T22:56:49.636Z,13.92
2018-09-21T22:59:18.104Z,13.87
2018-09-21T23:01:46.588Z,13.52
2018-09-21T23:04:15.111Z,13.58
2018-09-21T23:06:43.648Z,13.63
2018-09-21T23:09:13.390Z,13.65
2018-09-21T23:11:42.743Z,13.15
2018-09-21T23:14:11.698Z,13.14
2018-09-21T23:16:40.512Z,13.37
2018-09-21T23:19:09.442Z,13.18
2018-09-21T23:21:37.889Z,12.85
2018-09-21T23:24:06.372Z,12.47
2018-09-21T23:26:34.870Z,12.16
2018-09-21T23:29:03.303Z,11.77
2018-09-21T23:31:31.738Z,11.28
2018-09-21T23:34:00.302Z,10.96
2018-09-21T23:36:28.979Z,10.86
2018-09-21T23:38:57.466Z,10.85
2018-09-21T23:41:25.963Z,10.75
2018-09-21T23:43:54.371Z,10.64
2018-09-21T23:46:22.757Z,10.52
2018-09-21T23:48:51.475Z,10.65
2018-09-21T23:51:20.031Z,10.52
2018-09-21T23:53:48.498Z,10.96
2018-09-21T23:56:17.166Z,10.45
2018-09-21T23:58:45.596Z,10.75
